createdAt,value
2018-06-14T00:00:59.145Z,993.35
2018-06-14T00:02:09.238Z,993.36
2018-06-14T00:03:19.308Z,993.36
2018-06-14T00:04:29.422Z,993.39
2018-06-14T00:05:39.511Z,993.38
2018-06-14T00:06:49.574Z,993.46
2018-06-14T00:07:59.650Z,993.42
2018-06-14T00:09:09.709Z,993.41
2018-06-14T00:10:19.798Z,993.42
2018-06-14T00:11:29.876Z,993.54
2018-06-14T00:12:39.943Z,993.33
2018-06-14T00:13:50.020Z,993.37
2018-06-14T00:14:59.816Z,993.38
2018-06-14T00:16:09.648Z,993.4
2018-06-14T00:17:19.537Z,993.46
2018-06-14T00:18:29.213Z,993.44
2018-06-14T00:19:39.037Z,993.46
2018-06-14T00:20:49.110Z,993.35
2018-06-14T00:21:58.947Z,993.49
2018-06-14T00:23:09.040Z,993.48
2018-06-14T00:24:19.114Z,993.54
2018-06-14T00:25:29.184Z,993.5
2018-06-14T00:26:39.270Z,993.45
2018-06-14T00:27:49.356Z,993.45
2018-06-14T00:28:59.445Z,993.45
2018-06-14T00:30:09.509Z,993.55
2018-06-14T00:31:19.345Z,993.48
2018-06-14T00:32:29.420Z,993.59
2018-06-14T00:33:39.498Z,993.55
2018-06-14T00:34:49.616Z,993.55
2018-06-14T00:35:59.706Z,993.53
2018-06-14T00:37:09.777Z,993.59
2018-06-14T00:38:19.855Z,993.59
2018-06-14T00:39:29.936Z,993.53
2018-06-14T00:40:40.009Z,993.6
2018-06-14T00:41:50.099Z,993.54
2018-06-14T00:43:00.223Z,993.7
2018-06-14T00:44:10.285Z,993.63
2018-06-14T00:45:20.357Z,993.63
2018-06-14T00:46:30.172Z,993.63
2018-06-14T00:47:40.258Z,993.72
2018-06-14T00:48:50.066Z,993.7
2018-06-14T00:50:00.160Z,993.68
2018-06-14T00:51:10.234Z,993.73
2018-06-14T00:52:20.315Z,993.77
2018-06-14T00:53:30.383Z,993.74
2018-06-14T00:54:40.181Z,993.63
2018-06-14T00:55:50.267Z,993.74
2018-06-14T00:57:00.350Z,993.78
2018-06-14T00:58:10.473Z,993.74
2018-06-14T00:59:20.528Z,993.65
2018-06-14T01:00:30.609Z,993.73
2018-06-14T01:01:40.693Z,993.7
2018-06-14T01:02:50.982Z,993.65
2018-06-14T01:04:01.061Z,993.72
2018-06-14T01:05:11.125Z,993.71
2018-06-14T01:06:20.943Z,993.72
2018-06-14T01:07:30.759Z,993.7
2018-06-14T01:08:40.579Z,993.69
2018-06-14T01:09:50.659Z,993.65
2018-06-14T01:11:00.496Z,993.69
2018-06-14T01:12:10.048Z,993.77
2018-06-14T01:13:20.107Z,993.71
2018-06-14T01:14:30.183Z,993.67
2018-06-14T01:15:40.256Z,993.82
2018-06-14T01:16:50.079Z,993.73
2018-06-14T01:18:00.146Z,993.75
2018-06-14T01:19:10.212Z,993.72
2018-06-14T01:20:20.291Z,993.74
2018-06-14T01:21:30.364Z,993.75
2018-06-14T01:22:40.460Z,993.76
2018-06-14T01:23:50.273Z,993.72
2018-06-14T01:25:00.370Z,993.75
2018-06-14T01:26:10.456Z,993.77
2018-06-14T01:27:20.572Z,993.77
2018-06-14T01:28:30.653Z,993.8
2018-06-14T01:29:40.485Z,993.72
2018-06-14T01:30:50.543Z,993.71
2018-06-14T01:32:00.106Z,993.73
2018-06-14T01:33:10.222Z,993.75
2018-06-14T01:34:20.291Z,993.76
2018-06-14T01:35:30.120Z,993.78
2018-06-14T01:36:39.928Z,993.75
2018-06-14T01:37:50.000Z,993.78
2018-06-14T01:39:00.110Z,993.66
2018-06-14T01:40:09.932Z,993.82
2018-06-14T01:41:19.764Z,993.77
2018-06-14T01:42:29.851Z,993.8
2018-06-14T01:43:39.930Z,993.79
2018-06-14T01:44:50.022Z,993.79
2018-06-14T01:46:00.116Z,994.01
2018-06-14T01:47:09.933Z,993.85
2018-06-14T01:48:20.005Z,993.77
2018-06-14T01:49:29.822Z,993.88
2018-06-14T01:50:39.944Z,993.84
2018-06-14T01:51:50.037Z,993.8
2018-06-14T01:53:00.119Z,993.83
2018-06-14T01:54:09.655Z,993.81
2018-06-14T01:55:19.477Z,993.81
2018-06-14T01:56:29.063Z,994.02
2018-06-14T01:57:39.149Z,993.85
2018-06-14T01:58:49.200Z,993.82
2018-06-14T01:59:59.268Z,993.72
2018-06-14T02:01:09.084Z,993.86
2018-06-14T02:02:19.140Z,993.85
2018-06-14T02:03:28.958Z,993.87
2018-06-14T02:04:38.796Z,993.87
2018-06-14T02:05:48.609Z,993.92
2018-06-14T02:06:58.665Z,993.87
2018-06-14T02:08:08.730Z,993.94
2018-06-14T02:09:18.809Z,994
2018-06-14T02:10:28.619Z,994.01
2018-06-14T02:11:38.688Z,993.99
2018-06-14T02:12:48.767Z,993.9
2018-06-14T02:13:58.574Z,993.89
2018-06-14T02:15:08.380Z,993.94
2018-06-14T02:16:18.442Z,993.97
2018-06-14T02:17:28.502Z,993.88
2018-06-14T02:18:38.570Z,993.94
2018-06-14T02:19:48.641Z,994.01
2018-06-14T02:20:58.455Z,993.89
2018-06-14T02:22:08.530Z,993.95
2018-06-14T02:23:18.593Z,993.93
2018-06-14T02:24:28.673Z,994.02
2018-06-14T02:25:38.777Z,993.91
2018-06-14T02:26:48.590Z,993.95
2018-06-14T02:27:58.144Z,993.94
2018-06-14T02:29:08.216Z,994.06
2018-06-14T02:30:18.285Z,994.06
2018-06-14T02:31:28.371Z,994.06
2018-06-14T02:32:38.461Z,994.09
2018-06-14T02:33:48.558Z,993.91
2018-06-14T02:34:58.651Z,994.14
2018-06-14T02:36:08.726Z,994.09
2018-06-14T02:37:18.797Z,994.01
2018-06-14T02:38:28.866Z,994.03
2018-06-14T02:39:38.676Z,994.09
2018-06-14T02:40:48.753Z,994.14
2018-06-14T02:41:58.577Z,994.08
2018-06-14T02:43:08.695Z,994.16
2018-06-14T02:44:18.780Z,994.18
2018-06-14T02:45:28.618Z,994.17
2018-06-14T02:46:38.698Z,994.26
2018-06-14T02:47:48.524Z,994.2
2018-06-14T02:48:58.663Z,994.14
2018-06-14T02:50:08.488Z,994.17
2018-06-14T02:51:18.290Z,994.23
2018-06-14T02:52:28.358Z,994.18
2018-06-14T02:53:38.434Z,994.27
2018-06-14T02:54:48.492Z,994.21
2018-06-14T02:55:58.587Z,994.23
2018-06-14T02:57:08.661Z,994.23
2018-06-14T02:58:18.194Z,994.25
2018-06-14T02:59:28.259Z,994.23
2018-06-14T03:00:38.355Z,994.24
2018-06-14T03:01:48.175Z,994.24
2018-06-14T03:02:58.249Z,994.21
2018-06-14T03:34:46.371Z,994.46
2018-06-14T03:35:56.436Z,994.41
2018-06-14T03:37:06.510Z,994.45
2018-06-14T03:38:16.581Z,994.47
2018-06-14T03:39:26.659Z,994.5
2018-06-14T03:40:36.773Z,994.44
2018-06-14T03:41:47.007Z,994.47
2018-06-14T03:42:57.074Z,994.45
2018-06-14T03:44:06.887Z,994.49
2018-06-14T03:45:16.692Z,994.42
2018-06-14T03:46:26.869Z,994.54
2018-06-14T03:47:37.067Z,994.48
2018-06-14T03:48:47.132Z,994.49
2018-06-14T03:49:57.206Z,994.44
2018-06-14T03:51:07.008Z,994.5
2018-06-14T03:52:16.819Z,994.53
2018-06-14T03:53:26.631Z,994.49
2018-06-14T03:54:36.713Z,994.46
2018-06-14T03:55:46.769Z,994.45
2018-06-14T03:56:56.831Z,994.55
2018-06-14T03:58:06.902Z,994.51
2018-06-14T03:59:16.739Z,994.55
2018-06-14T04:00:26.837Z,994.55
2018-06-14T04:01:36.643Z,994.53
2018-06-14T04:02:46.743Z,994.58
2018-06-14T04:03:56.390Z,994.55
2018-06-14T04:05:06.901Z,994.53
2018-06-14T04:06:17.013Z,994.53
2018-06-14T04:07:26.565Z,994.58
2018-06-14T04:08:36.374Z,994.58
2018-06-14T04:09:46.443Z,994.58
2018-06-14T04:10:56.521Z,994.6
2018-06-14T04:12:06.593Z,994.63
2018-06-14T04:13:16.659Z,994.61
2018-06-14T04:14:26.475Z,994.69
2018-06-14T04:15:36.620Z,994.6
2018-06-14T04:16:46.700Z,994.66
2018-06-14T04:17:56.780Z,994.69
2018-06-14T04:19:06.851Z,994.68
2018-06-14T04:20:16.990Z,994.71
2018-06-14T04:21:26.907Z,994.68
2018-06-14T04:22:36.730Z,994.64
2018-06-14T04:23:46.799Z,994.79
2018-06-14T04:24:56.859Z,994.85
2018-06-14T04:26:06.670Z,994.7
2018-06-14T04:27:16.759Z,994.7
2018-06-14T04:28:27.006Z,994.74
2018-06-14T04:29:37.077Z,994.6
2018-06-14T04:30:46.888Z,994.67
2018-06-14T04:31:56.993Z,994.67
2018-06-14T04:33:07.120Z,994.64
2018-06-14T04:34:16.929Z,994.63
2018-06-14T04:35:27.000Z,994.6
2018-06-14T04:36:37.109Z,994.6
2018-06-14T04:37:46.924Z,994.56
2018-06-14T04:38:56.988Z,994.61
2018-06-14T04:40:07.070Z,994.66
2018-06-14T04:41:17.138Z,994.62
2018-06-14T04:42:27.227Z,994.69
2018-06-14T04:43:37.302Z,994.66
2018-06-14T04:44:47.114Z,994.76
2018-06-14T04:45:57.213Z,994.74
2018-06-14T04:47:07.401Z,994.77
2018-06-14T04:48:17.222Z,994.78
2018-06-14T04:49:27.290Z,994.8
2018-06-14T04:50:37.359Z,994.8
2018-06-14T04:51:47.437Z,994.79
2018-06-14T04:52:56.731Z,994.86
2018-06-14T04:54:06.808Z,994.86
2018-06-14T04:55:16.902Z,994.88
2018-06-14T04:56:26.728Z,994.9
2018-06-14T04:57:36.784Z,994.88
2018-06-14T04:58:46.859Z,994.89
2018-06-14T04:59:56.923Z,994.87
2018-06-14T05:01:06.725Z,994.91
2018-06-14T05:02:16.886Z,994.97
2018-06-14T05:03:27.177Z,994.91
2018-06-14T05:04:37.254Z,994.89
2018-06-14T05:05:47.065Z,994.85
2018-06-14T05:06:57.147Z,994.95
2018-06-14T05:08:07.202Z,994.96
2018-06-14T05:09:17.021Z,994.97
2018-06-14T05:10:26.846Z,994.98
2018-06-14T05:11:36.670Z,994.92
2018-06-14T05:12:46.758Z,994.96
2018-06-14T05:13:56.569Z,994.97
2018-06-14T05:15:06.651Z,994.94
2018-06-14T05:16:16.711Z,995.08
2018-06-14T05:17:26.793Z,994.98
2018-06-14T05:18:36.882Z,994.97
2018-06-14T05:19:46.947Z,994.99
2018-06-14T05:20:57.025Z,995.04
2018-06-14T05:22:07.119Z,994.99
2018-06-14T05:23:17.225Z,994.99
2018-06-14T05:24:27.380Z,995.08
2018-06-14T05:25:37.456Z,995.09
2018-06-14T05:26:47.541Z,995.09
2018-06-14T05:27:57.359Z,995.08
2018-06-14T05:29:07.434Z,995.02
2018-06-14T05:30:17.506Z,995.04
2018-06-14T05:31:27.630Z,995.09
2018-06-14T05:32:37.709Z,995.21
2018-06-14T05:33:47.961Z,995.15
2018-06-14T05:34:58.044Z,995.13
2018-06-14T05:36:07.873Z,995.16
2018-06-14T05:37:17.951Z,995.16
2018-06-14T05:38:28.047Z,995.18
2018-06-14T05:39:38.149Z,995.2
2018-06-14T05:40:48.233Z,995.18
2018-06-14T05:41:58.316Z,995.18
2018-06-14T05:43:08.144Z,995.26
2018-06-14T05:44:18.236Z,995.24
2018-06-14T05:45:28.305Z,995.31
2018-06-14T05:46:38.386Z,995.2
2018-06-14T05:47:47.968Z,995.22
2018-06-14T05:48:57.762Z,995.33
2018-06-14T05:50:07.595Z,995.19
2018-06-14T05:51:17.675Z,995.24
2018-06-14T05:52:27.502Z,995.19
2018-06-14T05:53:37.583Z,995.3
2018-06-14T05:54:47.707Z,995.23
2018-06-14T05:55:57.776Z,995.24
2018-06-14T05:57:08.026Z,995.22
2018-06-14T05:58:18.090Z,995.22
2018-06-14T05:59:28.162Z,995.25
2018-06-14T06:00:37.756Z,995.21
2018-06-14T06:01:47.827Z,995.34
2018-06-14T06:02:57.373Z,995.29
2018-06-14T06:04:07.445Z,995.32
2018-06-14T06:05:17.514Z,995.34
2018-06-14T06:06:27.580Z,995.36
2018-06-14T06:07:37.651Z,995.3
2018-06-14T06:08:47.464Z,995.32
2018-06-14T06:09:57.284Z,995.38
2018-06-14T06:11:07.354Z,995.35
2018-06-14T06:12:17.479Z,995.41
2018-06-14T06:13:27.018Z,995.46
2018-06-14T06:14:37.099Z,995.45
2018-06-14T06:15:46.920Z,995.43
2018-06-14T06:16:57.016Z,995.49
2018-06-14T06:18:07.075Z,995.43
2018-06-14T06:19:16.887Z,995.54
2018-06-14T06:20:26.977Z,995.45
2018-06-14T06:21:37.078Z,995.51
2018-06-14T06:22:46.370Z,995.54
2018-06-14T06:23:56.245Z,995.63
2018-06-14T06:25:06.336Z,995.59
2018-06-14T06:26:16.506Z,995.54
2018-06-14T06:27:27.100Z,995.56
2018-06-14T06:28:37.166Z,995.56
2018-06-14T06:29:47.296Z,995.56
2018-06-14T06:30:57.369Z,995.58
2018-06-14T06:32:07.452Z,995.48
2018-06-14T06:33:17.625Z,995.48
2018-06-14T06:34:28.289Z,995.51
2018-06-14T06:35:38.416Z,995.54
2018-06-14T06:36:48.503Z,995.62
2018-06-14T06:37:58.322Z,995.55
2018-06-14T06:39:08.389Z,995.55
2018-06-14T06:40:18.462Z,995.6
2018-06-14T06:41:28.545Z,995.6
2018-06-14T06:42:38.107Z,995.69
2018-06-14T06:43:48.200Z,995.66
2018-06-14T06:44:58.336Z,995.69
2018-06-14T06:46:07.364Z,995.67
2018-06-14T06:47:17.444Z,995.72
2018-06-14T06:48:27.514Z,995.64
2018-06-14T06:49:37.619Z,995.71
2018-06-14T06:50:47.723Z,995.76
2018-06-14T06:51:57.797Z,995.65
2018-06-14T06:53:07.943Z,995.7
2018-06-14T06:54:18.183Z,995.79
2018-06-14T06:55:28.278Z,995.7
2018-06-14T06:56:38.088Z,995.67
2018-06-14T06:57:47.917Z,995.82
2018-06-14T06:58:58.126Z,995.7
2018-06-14T07:00:08.373Z,995.72
2018-06-14T07:01:17.916Z,995.72
2018-06-14T07:02:27.716Z,995.61
2018-06-14T07:03:37.772Z,995.61
2018-06-14T07:04:47.624Z,995.64
2018-06-14T07:05:57.759Z,995.67
2018-06-14T07:07:07.951Z,995.69
2018-06-14T07:08:17.786Z,995.66
2018-06-14T07:09:27.873Z,995.69
2018-06-14T07:10:38.010Z,995.72
2018-06-14T07:11:47.840Z,995.72
2018-06-14T07:12:58.023Z,995.7
2018-06-14T07:14:08.095Z,995.77
2018-06-14T07:15:18.183Z,995.72
2018-06-14T07:16:28.272Z,995.75
2018-06-14T07:17:38.097Z,995.79
2018-06-14T07:18:48.189Z,995.84
2018-06-14T07:19:57.992Z,995.75
2018-06-14T07:21:08.059Z,995.78
2018-06-14T07:22:17.621Z,995.71
2018-06-14T07:23:27.694Z,995.73
2018-06-14T07:24:37.764Z,995.72
2018-06-14T07:25:47.842Z,995.76
2018-06-14T07:26:57.912Z,995.67
2018-06-14T07:28:08.030Z,995.85
2018-06-14T07:29:17.861Z,995.74
2018-06-14T07:30:27.939Z,995.76
2018-06-14T07:31:37.746Z,995.73
2018-06-14T07:32:47.817Z,995.78
2018-06-14T07:33:57.956Z,995.77
2018-06-14T07:35:07.754Z,995.94
2018-06-14T07:36:17.839Z,995.86
2018-06-14T07:37:27.933Z,995.97
2018-06-14T07:38:37.739Z,995.96
2018-06-14T07:39:47.311Z,996.09
2018-06-14T07:40:57.131Z,995.89
2018-06-14T07:42:07.214Z,995.98
2018-06-14T07:43:16.774Z,995.9
2018-06-14T07:44:26.866Z,995.96
2018-06-14T07:45:36.698Z,996
2018-06-14T07:46:46.776Z,995.93
2018-06-14T07:47:56.604Z,996.04
2018-06-14T07:49:06.684Z,995.97
2018-06-14T07:50:16.775Z,996.01
2018-06-14T07:51:26.919Z,996.04
2018-06-14T07:52:36.995Z,996.02
2018-06-14T07:53:46.839Z,996.01
2018-06-14T07:54:56.920Z,996
2018-06-14T07:56:06.996Z,996.02
2018-06-14T07:57:17.082Z,995.99
2018-06-14T07:58:27.155Z,996.02
2018-06-14T07:59:37.250Z,996.14
2018-06-14T08:00:47.336Z,996.13
2018-06-14T08:01:57.173Z,996.06
2018-06-14T08:03:07.266Z,996.15
2018-06-14T08:04:17.354Z,996.15
2018-06-14T08:05:27.190Z,996.09
2018-06-14T08:06:37.131Z,996.2
2018-06-14T08:07:47.279Z,996.21
2018-06-14T08:10:22.117Z,996.26
2018-06-14T08:11:32.215Z,996.18
2018-06-14T08:12:42.030Z,996.13
2018-06-14T08:13:52.178Z,996.18
2018-06-14T08:15:02.284Z,996.19
2018-06-14T08:16:12.108Z,996.27
2018-06-14T08:17:22.182Z,996.13
2018-06-14T08:18:32.005Z,996.16
2018-06-14T08:19:42.097Z,996.14
2018-06-14T08:20:52.189Z,996.33
2018-06-14T08:22:02.278Z,996.23
2018-06-14T08:23:12.136Z,996.24
2018-06-14T08:24:22.208Z,996.29
2018-06-14T08:25:32.297Z,996.26
2018-06-14T08:26:42.379Z,996.24
2018-06-14T08:27:52.474Z,996.26
2018-06-14T08:29:02.617Z,996.25
2018-06-14T08:30:12.451Z,996.26
2018-06-14T08:31:22.535Z,996.21
2018-06-14T08:32:32.862Z,996.25
2018-06-14T08:33:42.681Z,996.24
2018-06-14T08:34:52.799Z,996.26
2018-06-14T08:36:02.905Z,996.18
2018-06-14T08:37:12.988Z,996.21
2018-06-14T08:38:23.252Z,996.13
2018-06-14T08:39:33.348Z,996.15
2018-06-14T08:40:43.562Z,996.12
2018-06-14T08:41:53.664Z,996.11
2018-06-14T08:43:03.517Z,996.22
2018-06-14T08:44:13.343Z,996.17
2018-06-14T08:45:23.437Z,996.14
2018-06-14T08:46:33.556Z,996.15
2018-06-14T08:47:43.368Z,996.17
2018-06-14T08:48:52.923Z,996.16
2018-06-14T08:50:03.246Z,996.05
2018-06-14T08:51:13.591Z,996.11
2018-06-14T08:52:23.814Z,996.07
2018-06-14T08:53:33.685Z,996.1
2018-06-14T08:54:43.805Z,996.12
2018-06-14T08:55:53.917Z,996.2
2018-06-14T08:57:04.004Z,996.14
2018-06-14T08:58:14.128Z,996.13
2018-06-14T08:59:23.993Z,996.1
2018-06-14T09:00:33.833Z,996.07
2018-06-14T09:01:44.042Z,996.1
2018-06-14T09:02:54.145Z,996.17
2018-06-14T09:04:04.331Z,996.19
2018-06-14T09:05:14.416Z,996.17
2018-06-14T09:06:24.491Z,996.14
2018-06-14T09:07:34.574Z,996.19
2018-06-14T09:08:44.653Z,996.22
2018-06-14T09:09:54.821Z,996.13
2018-06-14T09:11:04.912Z,996.21
2018-06-14T09:12:15.066Z,996.24
2018-06-14T09:13:25.166Z,996.18
2018-06-14T09:14:35.245Z,996.28
2018-06-14T09:15:45.355Z,996.24
2018-06-14T09:16:55.192Z,996.27
2018-06-14T09:18:05.268Z,996.24
2018-06-14T09:19:15.357Z,996.28
2018-06-14T09:20:25.433Z,996.29
2018-06-14T09:21:35.527Z,996.23
2018-06-14T09:22:45.622Z,996.26
2018-06-14T09:23:55.491Z,996.31
2018-06-14T09:25:05.597Z,996.22
2018-06-14T09:26:15.703Z,996.27
2018-06-14T09:27:25.802Z,996.23
2018-06-14T09:28:35.897Z,996.24
2018-06-14T09:29:45.965Z,996.27
2018-06-14T09:30:56.144Z,996.27
2018-06-14T09:32:06.232Z,996.28
2018-06-14T09:33:16.100Z,996.31
2018-06-14T09:34:26.267Z,996.25
2018-06-14T09:35:36.347Z,996.32
2018-06-14T09:36:46.589Z,996.31
2018-06-14T09:37:56.453Z,996.36
2018-06-14T09:39:06.268Z,996.28
2018-06-14T09:40:16.332Z,996.27
2018-06-14T09:41:26.430Z,996.26
2018-06-14T09:42:36.538Z,996.25
2018-06-14T09:43:46.540Z,996.23
2018-06-14T09:44:56.630Z,996.32
2018-06-14T09:46:06.724Z,996.33
2018-06-14T09:47:16.828Z,996.27
2018-06-14T09:48:26.658Z,996.31
2018-06-14T09:49:36.735Z,996.34
2018-06-14T09:50:46.827Z,996.31
2018-06-14T09:51:56.936Z,996.33
2018-06-14T09:53:06.743Z,996.32
2018-06-14T09:54:16.841Z,996.34
2018-06-14T09:55:26.387Z,996.32
2018-06-14T09:56:36.462Z,996.3
2018-06-14T09:57:46.595Z,996.3
2018-06-14T09:58:56.701Z,996.34
2018-06-14T10:00:07.261Z,996.39
2018-06-14T10:01:17.389Z,996.36
2018-06-14T10:02:27.478Z,996.38
2018-06-14T10:03:37.571Z,996.32
2018-06-14T10:04:47.670Z,996.46
2018-06-14T10:05:57.765Z,996.39
2018-06-14T10:07:08.088Z,996.4
2018-06-14T10:08:18.178Z,996.32
2018-06-14T10:09:28.012Z,996.34
2018-06-14T10:10:38.331Z,996.39
2018-06-14T10:11:48.409Z,996.31
2018-06-14T10:12:58.491Z,996.3
2018-06-14T10:14:08.567Z,996.36
2018-06-14T10:15:18.656Z,996.35
2018-06-14T10:16:28.835Z,996.32
2018-06-14T10:17:38.392Z,996.3
2018-06-14T10:18:48.334Z,996.35
2018-06-14T10:19:58.425Z,996.38
2018-06-14T10:21:08.248Z,996.3
2018-06-14T10:22:18.347Z,996.36
2018-06-14T10:23:28.216Z,996.28
2018-06-14T10:24:38.309Z,996.25
2018-06-14T10:25:48.387Z,996.25
2018-06-14T10:26:58.471Z,996.19
2018-06-14T10:28:08.589Z,996.23
2018-06-14T10:29:18.710Z,996.21
2018-06-14T10:30:29.021Z,996.29
2018-06-14T10:31:38.863Z,996.2
2018-06-14T10:32:48.982Z,996.15
2018-06-14T10:33:59.077Z,996.16
2018-06-14T10:35:09.210Z,996.15
2018-06-14T10:36:19.285Z,996.2
2018-06-14T10:37:29.386Z,996.16
2018-06-14T10:38:39.189Z,996.18
2018-06-14T10:39:49.263Z,996.17
2018-06-14T10:40:59.353Z,996.16
2018-06-14T10:42:09.456Z,996.19
2018-06-14T10:43:19.524Z,996.18
2018-06-14T10:44:29.781Z,996.16
2018-06-14T10:45:39.100Z,996.16
2018-06-14T10:46:49.174Z,996.18
2018-06-14T10:47:59.250Z,996.13
2018-06-14T10:49:09.348Z,996.15
2018-06-14T10:50:19.429Z,996.13
2018-06-14T10:51:29.523Z,996.13
2018-06-14T10:52:39.605Z,996.13
2018-06-14T10:53:49.410Z,996.1
2018-06-14T10:54:59.229Z,996.08
2018-06-14T10:56:09.065Z,996.08
2018-06-14T10:57:19.152Z,996.07
2018-06-14T10:58:29.278Z,996.03
2018-06-14T10:59:39.375Z,996.12
2018-06-14T11:00:49.212Z,996.09
2018-06-14T11:01:59.308Z,996.12
2018-06-14T11:03:09.384Z,996.13
2018-06-14T11:04:19.520Z,996.16
2018-06-14T11:05:29.613Z,996.22
2018-06-14T11:06:39.714Z,996.18
2018-06-14T11:07:49.813Z,996.19
2018-06-14T11:08:59.624Z,996.11
2018-06-14T11:10:09.228Z,996.18
2018-06-14T11:11:19.303Z,996.11
2018-06-14T11:12:29.389Z,996.11
2018-06-14T11:13:39.464Z,996.07
2018-06-14T11:14:49.555Z,996.1
2018-06-14T11:15:59.364Z,996.15
2018-06-14T11:17:09.176Z,996.12
2018-06-14T11:18:19.258Z,996.04
2018-06-14T11:19:29.069Z,996.04
2018-06-14T11:20:39.148Z,996.02
2018-06-14T11:21:48.977Z,996.07
2018-06-14T11:22:58.813Z,996.02
2018-06-14T11:24:08.937Z,995.99
2018-06-14T11:25:19.062Z,995.97
2018-06-14T11:26:28.872Z,996.03
2018-06-14T11:27:38.472Z,996.01
2018-06-14T11:28:48.555Z,996.03
2018-06-14T11:29:58.459Z,996.06
2018-06-14T11:31:08.962Z,996.07
2018-06-14T11:32:18.798Z,996.03
2018-06-14T11:33:28.674Z,996.08
2018-06-14T11:34:38.763Z,996.04
2018-06-14T11:35:48.863Z,996.03
2018-06-14T11:36:58.949Z,995.97
2018-06-14T11:38:09.029Z,996
2018-06-14T11:39:19.123Z,995.98
2018-06-14T11:40:29.226Z,996.04
2018-06-14T11:41:39.317Z,996.03
2018-06-14T11:42:48.869Z,996.02
2018-06-14T11:43:58.958Z,996.05
2018-06-14T11:45:08.836Z,996.08
2018-06-14T11:46:18.914Z,996.06
2018-06-14T11:47:29.017Z,996
2018-06-14T11:48:38.851Z,996.05
2018-06-14T11:49:48.418Z,996.04
2018-06-14T11:50:58.301Z,995.96
2018-06-14T11:52:08.142Z,995.97
2018-06-14T11:53:18.224Z,995.97
2018-06-14T11:54:28.053Z,996.01
2018-06-14T11:55:38.127Z,995.94
2018-06-14T11:56:48.227Z,995.97
2018-06-14T11:57:58.341Z,995.95
2018-06-14T11:59:08.441Z,995.96
2018-06-14T12:00:18.520Z,995.93
2018-06-14T12:01:28.595Z,995.97
2018-06-14T12:02:38.708Z,995.88
2018-06-14T12:03:48.798Z,995.88
2018-06-14T12:04:58.892Z,995.95
2018-06-14T12:06:08.977Z,995.94
2018-06-14T12:07:19.062Z,995.89
2018-06-14T12:08:29.189Z,995.88
2018-06-14T12:09:39.336Z,995.94
2018-06-14T12:10:49.430Z,995.93
2018-06-14T12:11:59.508Z,996.02
2018-06-14T12:13:09.852Z,995.92
2018-06-14T12:14:20.009Z,995.84
2018-06-14T12:15:30.117Z,995.84
2018-06-14T12:16:39.631Z,995.92
2018-06-14T12:17:49.752Z,995.84
2018-06-14T12:18:59.581Z,995.85
2018-06-14T12:20:09.910Z,995.8
2018-06-14T12:21:22.686Z,995.8
2018-06-14T12:22:35.068Z,995.79
2018-06-14T12:23:44.886Z,995.81
2018-06-14T12:24:55.023Z,995.87
2018-06-14T12:26:05.167Z,995.83
2018-06-14T12:27:15.003Z,995.81
2018-06-14T12:28:25.116Z,995.85
2018-06-14T12:29:35.216Z,995.76
2018-06-14T12:30:45.055Z,995.71
2018-06-14T12:31:55.167Z,995.76
2018-06-14T12:33:05.242Z,995.77
2018-06-14T12:34:15.331Z,995.72
2018-06-14T12:35:25.443Z,995.72
2018-06-14T12:36:35.593Z,995.66
2018-06-14T12:37:45.704Z,995.65
2018-06-14T12:38:55.854Z,995.74
2018-06-14T12:40:05.741Z,995.7
2018-06-14T12:41:15.835Z,995.63
2018-06-14T12:42:25.976Z,995.65
2018-06-14T12:43:36.077Z,995.68
2018-06-14T12:44:46.182Z,995.63
2018-06-14T12:45:56.233Z,995.65
2018-06-14T12:47:06.319Z,995.62
2018-06-14T12:48:16.485Z,995.66
2018-06-14T12:49:26.550Z,995.63
2018-06-14T12:50:36.670Z,995.6
2018-06-14T12:51:46.746Z,995.57
2018-06-14T12:52:56.847Z,995.54
2018-06-14T12:54:06.962Z,995.57
2018-06-14T12:55:16.791Z,995.59
2018-06-14T12:56:26.904Z,995.56
2018-06-14T12:57:37.028Z,995.55
2018-06-14T12:58:47.127Z,995.54
2018-06-14T12:59:56.963Z,995.55
2018-06-14T13:01:07.080Z,995.52
2018-06-14T13:02:17.186Z,995.58
2018-06-14T13:03:27.016Z,995.57
2018-06-14T13:04:37.085Z,995.5
2018-06-14T13:05:47.187Z,995.55
2018-06-14T13:06:57.297Z,995.53
2018-06-14T13:08:07.405Z,995.59
2018-06-14T13:09:17.490Z,995.55
2018-06-14T13:10:27.577Z,995.48
2018-06-14T13:11:37.714Z,995.46
2018-06-14T13:12:47.804Z,995.54
2018-06-14T13:13:57.898Z,995.44
2018-06-14T13:15:07.724Z,995.5
2018-06-14T13:16:17.292Z,995.36
2018-06-14T13:17:27.435Z,995.45
2018-06-14T13:18:37.121Z,995.45
2018-06-14T13:19:46.951Z,995.44
2018-06-14T13:20:57.065Z,995.51
2018-06-14T13:22:06.885Z,995.52
2018-06-14T13:23:17.033Z,995.62
2018-06-14T13:24:27.117Z,995.47
2018-06-14T13:25:37.204Z,995.47
2018-06-14T13:26:47.065Z,995.49
2018-06-14T13:27:57.158Z,995.54
2018-06-14T13:29:07.267Z,995.5
2018-06-14T13:30:17.353Z,995.51
2018-06-14T13:31:27.427Z,995.63
2018-06-14T13:32:37.505Z,995.46
2018-06-14T13:33:47.061Z,995.45
2018-06-14T13:34:56.889Z,995.47
2018-06-14T13:36:06.994Z,995.46
2018-06-14T13:37:17.090Z,995.36
2018-06-14T13:46:28.955Z,995.36
2018-06-14T13:47:38.809Z,995.42
2018-06-14T13:48:48.973Z,995.33
2018-06-14T13:49:59.613Z,995.42
2018-06-14T13:51:09.695Z,995.34
2018-06-14T13:52:19.796Z,995.4
2018-06-14T13:53:29.885Z,995.42
2018-06-14T13:54:39.954Z,995.38
2018-06-14T13:55:50.058Z,995.42
2018-06-14T13:56:59.922Z,995.45
2018-06-14T13:58:10.139Z,995.38
2018-06-14T13:59:20.214Z,995.34
2018-06-14T14:00:30.328Z,995.33
2018-06-14T14:01:40.425Z,995.39
2018-06-14T14:02:50.497Z,995.4
2018-06-14T14:04:00.599Z,995.32
2018-06-14T14:05:10.160Z,995.26
2018-06-14T14:06:19.990Z,995.29
2018-06-14T14:07:30.312Z,995.21
2018-06-14T14:08:40.161Z,995.26
2018-06-14T14:09:50.398Z,995.19
2018-06-14T14:11:00.483Z,995.17
2018-06-14T14:12:10.309Z,995.22
2018-06-14T14:13:20.105Z,995.2
2018-06-14T14:14:30.235Z,995.23
2018-06-14T14:15:40.565Z,995.2
2018-06-14T14:16:50.385Z,995.29
2018-06-14T14:18:00.509Z,995.3
2018-06-14T14:19:10.380Z,995.23
2018-06-14T14:20:20.205Z,995.22
2018-06-14T14:21:30.030Z,995.17
2018-06-14T14:22:40.119Z,995.17
2018-06-14T14:23:50.246Z,995.19
2018-06-14T14:25:00.526Z,995.17
2018-06-14T14:26:10.593Z,995.2
2018-06-14T14:27:20.139Z,995.2
2018-06-14T14:28:29.953Z,995.16
2018-06-14T14:29:39.782Z,995.11
2018-06-14T14:30:50.055Z,995.14
2018-06-14T14:32:00.151Z,995.15
2018-06-14T14:33:10.299Z,995.14
2018-06-14T14:34:20.392Z,995.19
2018-06-14T14:35:30.479Z,995.17
2018-06-14T14:36:40.327Z,995.15
2018-06-14T14:37:50.463Z,995.15
2018-06-14T14:39:00.357Z,995.19
2018-06-14T14:40:10.402Z,995.13
2018-06-14T14:41:20.508Z,995.11
2018-06-14T14:42:30.587Z,995.13
2018-06-14T14:43:40.409Z,995.11
2018-06-14T14:44:51.521Z,995.07
2018-06-14T14:46:01.620Z,995.07
2018-06-14T14:47:11.717Z,995.02
2018-06-14T14:48:21.804Z,995.04
2018-06-14T14:49:32.207Z,995.01
2018-06-14T14:50:42.364Z,995.04
2018-06-14T14:51:52.476Z,995.02
2018-06-14T14:53:02.582Z,994.98
2018-06-14T14:54:13.030Z,994.96
2018-06-14T14:55:23.195Z,994.97
2018-06-14T14:56:33.281Z,995
2018-06-14T14:57:43.451Z,995.02
2018-06-14T14:58:53.288Z,995.02
2018-06-14T15:00:02.852Z,994.99
2018-06-14T15:01:12.943Z,994.96
2018-06-14T15:02:23.035Z,994.94
2018-06-14T15:03:33.129Z,995
2018-06-14T15:04:43.202Z,995.01
2018-06-14T15:05:53.297Z,995.05
2018-06-14T15:07:03.360Z,994.99
2018-06-14T15:08:13.449Z,995.03
2018-06-14T15:09:23.566Z,994.99
2018-06-14T15:10:33.656Z,994.99
2018-06-14T15:11:43.748Z,994.98
2018-06-14T15:12:53.576Z,994.96
2018-06-14T15:14:03.712Z,994.92
2018-06-14T15:15:13.953Z,994.95
2018-06-14T15:16:23.791Z,994.97
2018-06-14T15:17:33.613Z,994.95